Time;durP1;ratioP1;P1;durP2;ratioP2;P2;SDS_P1;SDS_P2;PMS_P1;PMS_P2;Temp;Humidity;BMP_temperature;BMP_pressure;BME280_temperature;BME280_humidity;BME280_pressure;Samples;Min_cycle;Max_cycle;Signal;HPM_P1;HPM_P2
2023/03/04 00:02:09;;;;;;;6.05;1.98;;;;;;;18.96;42.87;102563.75;5101383;28;20028;-67
2023/03/04 00:04:34;;;;;;;7.85;2.67;;;;;;;18.93;42.77;102560.44;5101823;28;20032;-66
2023/03/04 00:06:59;;;;;;;7.68;1.95;;;;;;;18.94;42.86;102573.53;5101538;28;20528;-66
2023/03/04 00:09:25;;;;;;;7.30;2.10;;;;;;;18.91;42.85;102567.59;5081827;28;20032;-66
2023/03/04 00:11:50;;;;;;;8.07;2.17;;;;;;;18.89;42.89;102559.75;5086285;28;20032;-66
2023/03/04 00:14:15;;;;;;;5.40;1.98;;;;;;;18.88;42.84;102567.78;5081715;28;20065;-66
2023/03/04 00:16:41;;;;;;;7.13;2.10;;;;;;;18.81;42.82;102552.22;5091224;28;20061;-66
2023/03/04 00:19:06;;;;;;;7.57;1.98;;;;;;;18.88;42.75;102570.41;5101256;28;20328;-68
2023/03/04 00:21:31;;;;;;;7.63;1.83;;;;;;;18.85;43.12;102561.72;5091243;28;20464;-66
2023/03/04 00:23:57;;;;;;;7.70;1.90;;;;;;;18.85;42.94;102566.19;5081326;28;20464;-66
2023/03/04 00:26:22;;;;;;;6.57;1.70;;;;;;;18.81;43.00;102556.69;5088121;28;20039;-65
2023/03/04 00:28:47;;;;;;;6.15;2.10;;;;;;;18.80;42.88;102554.97;5081278;28;20096;-66
2023/03/04 00:31:13;;;;;;;6.85;1.80;;;;;;;18.78;43.05;102549.75;5081341;28;20040;-67
2023/03/04 00:33:39;;;;;;;8.18;2.13;;;;;;;18.81;42.99;102561.97;5093606;28;20077;-67
2023/03/04 00:36:05;;;;;;;6.38;1.92;;;;;;;18.78;43.08;102557.69;5101507;28;20040;-66
2023/03/04 00:38:30;;;;;;;9.48;1.85;;;;;;;18.76;43.09;102553.44;5097035;28;20031;-67
2023/03/04 00:40:55;;;;;;;6.88;2.03;;;;;;;18.73;43.08;102554.47;5079630;28;20031;-66
2023/03/04 00:43:20;;;;;;;7.28;2.13;;;;;;;18.73;43.05;102558.91;5095599;28;20063;-67
2023/03/04 00:45:46;;;;;;;7.22;2.10;;;;;;;18.73;43.09;102559.75;5087839;28;20061;-66
2023/03/04 00:48:12;;;;;;;8.60;2.17;;;;;;;18.72;42.92;102558.03;5088296;28;20028;-66
2023/03/04 00:50:37;;;;;;;5.38;1.92;;;;;;;18.68;43.09;102560.00;5095547;28;20081;-66
2023/03/04 00:53:03;;;;;;;4.75;2.00;;;;;;;18.70;43.08;102557.28;5095645;28;20476;-65
2023/03/04 00:55:29;;;;;;;6.03;1.83;;;;;;;18.70;42.76;102556.44;5091008;28;20123;-66
2023/03/04 00:57:54;;;;;;;5.68;1.70;;;;;;;18.67;41.56;102550.41;5093003;28;20114;-66
2023/03/04 01:00:20;;;;;;;8.73;1.90;;;;;;;18.67;40.92;102546.88;5080621;28;20070;-68
2023/03/04 01:02:45;;;;;;;8.93;2.08;;;;;;;18.68;40.39;102554.72;5080354;28;20036;-66
2023/03/04 01:05:11;;;;;;;6.85;2.28;;;;;;;18.68;40.40;102556.53;5094315;28;20437;-67
2023/03/04 01:07:36;;;;;;;7.68;2.05;;;;;;;18.65;39.88;102557.53;5100980;28;20024;-68
2023/03/04 01:10:03;;;;;;;5.05;1.80;;;;;;;18.66;39.73;102556.59;5100926;28;20035;-65
2023/03/04 01:12:28;;;;;;;6.57;2.35;;;;;;;18.64;39.57;102557.63;5100729;28;20075;-65
2023/03/04 01:14:53;;;;;;;6.15;2.35;;;;;;;18.64;39.70;102557.63;5100628;28;20066;-66
2023/03/04 01:17:18;;;;;;;10.02;2.35;;;;;;;18.58;39.81;102548.28;5100716;28;20032;-66
2023/03/04 01:19:44;;;;;;;6.40;2.00;;;;;;;18.65;39.83;102561.97;5100781;28;20040;-66
2023/03/04 01:22:11;;;;;;;7.30;2.15;;;;;;;18.59;39.73;102546.47;5100974;28;20028;-65
2023/03/04 01:24:36;;;;;;;6.20;1.90;;;;;;;18.66;39.70;102561.06;5085489;28;20028;-66
2023/03/04 01:27:02;;;;;;;6.35;1.48;;;;;;;18.66;39.39;102555.78;5087232;28;20032;-65
2023/03/04 01:29:27;;;;;;;7.82;2.10;;;;;;;18.66;39.37;102559.25;5085166;28;20044;-66
2023/03/04 01:31:52;;;;;;;7.07;1.90;;;;;;;18.66;39.26;102556.59;5095952;28;20043;-66
2023/03/04 01:34:18;;;;;;;6.10;2.25;;;;;;;18.63;39.07;102553.31;5089736;28;20062;-66
2023/03/04 01:36:43;;;;;;;8.20;2.08;;;;;;;18.65;39.02;102546.13;5100802;28;20081;-65
2023/03/04 01:39:08;;;;;;;5.25;1.75;;;;;;;18.66;38.69;102547.84;5100576;28;20031;-66
2023/03/04 01:41:34;;;;;;;7.85;2.30;;;;;;;18.64;38.79;102547.06;5087082;28;20373;-66
2023/03/04 01:44:01;;;;;;;6.95;1.88;;;;;;;18.65;38.75;102546.13;5087977;28;20088;-67
2023/03/04 01:46:27;;;;;;;6.22;2.13;;;;;;;18.62;38.78;102541.88;5081795;28;20426;-66
2023/03/04 01:48:52;;;;;;;7.50;1.90;;;;;;;18.63;38.59;102538.31;5092058;28;20110;-66
2023/03/04 01:51:19;;;;;;;7.53;1.92;;;;;;;18.63;38.24;102537.47;5099078;28;20126;-66
2023/03/04 01:53:48;;;;;;;7.00;1.90;;;;;;;18.62;38.46;102531.31;5100645;28;20042;-66
2023/03/04 01:56:27;;;;;;;8.55;1.67;;;;;;;18.59;38.11;102526.19;5086730;28;20162;-66
2023/03/04 01:59:09;;;;;;;6.60;1.85;;;;;;;18.61;38.18;102526.09;5104474;28;20480;-66
2023/03/04 02:01:35;;;;;;;8.35;1.77;;;;;;;18.57;38.21;102512.25;5103699;28;20074;-66
2023/03/04 02:04:00;;;;;;;7.95;2.40;;;;;;;18.58;38.00;102524.50;5104107;28;20118;-66
2023/03/04 02:06:26;;;;;;;6.53;1.80;;;;;;;18.59;37.85;102517.44;5085700;28;20571;-66
2023/03/04 02:08:51;;;;;;;6.80;1.75;;;;;;;18.58;37.82;102519.22;5083969;28;20499;-66
2023/03/04 02:11:17;;;;;;;5.80;1.60;;;;;;;18.56;38.01;102515.81;5103661;28;20035;-66
2023/03/04 02:13:42;;;;;;;8.95;1.98;;;;;;;18.56;37.66;102512.31;5104088;28;20398;-66
2023/03/04 02:16:07;;;;;;;4.90;1.55;;;;;;;18.53;37.59;102501.94;5097165;28;20373;-66
2023/03/04 02:18:33;;;;;;;4.70;1.50;;;;;;;18.53;37.85;102502.78;5092839;28;20392;-66
2023/03/04 02:21:04;;;;;;;6.13;1.67;;;;;;;18.53;37.65;102504.56;5101203;28;20138;-66
2023/03/04 02:23:41;;;;;;;7.60;1.90;;;;;;;18.52;37.55;102505.50;5103232;28;20256;-65
2023/03/04 02:26:11;;;;;;;6.60;1.92;;;;;;;18.52;37.54;102503.72;5091357;28;20084;-66
2023/03/04 02:28:36;;;;;;;7.97;1.92;;;;;;;18.48;37.39;102500.44;5103401;28;20035;-66
2023/03/04 02:31:02;;;;;;;5.43;1.67;;;;;;;18.48;37.64;102499.56;5103436;28;20034;-66
2023/03/04 02:33:28;;;;;;;6.70;1.73;;;;;;;18.51;37.57;102504.66;5103279;28;20036;-66
2023/03/04 02:35:53;;;;;;;5.75;1.75;;;;;;;18.49;37.56;102501.25;5100786;28;20028;-65
2023/03/04 02:38:18;;;;;;;7.18;2.00;;;;;;;18.50;37.49;102492.41;5090382;28;20043;-66
2023/03/04 02:40:47;;;;;;;5.40;1.40;;;;;;;18.47;37.54;102493.44;5092020;28;20589;-66
2023/03/04 02:43:13;;;;;;;7.43;1.73;;;;;;;18.50;37.27;102500.34;5100171;28;20031;-66
2023/03/04 02:45:49;;;;;;;4.47;1.42;;;;;;;18.46;37.40;102494.34;5082993;28;20781;-67
2023/03/04 02:48:18;;;;;;;4.93;1.52;;;;;;;18.41;37.25;102480.56;5097029;28;20084;-66
2023/03/04 02:50:47;;;;;;;4.68;1.52;;;;;;;18.44;36.94;102490.97;5090231;28;20032;-66
2023/03/04 02:53:14;;;;;;;5.50;1.60;;;;;;;18.47;37.16;102493.44;5093781;28;20035;-66
2023/03/04 02:55:41;;;;;;;6.78;1.60;;;;;;;18.45;37.19;102484.75;5101529;28;20061;-66
2023/03/04 02:58:06;;;;;;;5.90;1.73;;;;;;;18.44;36.84;102484.84;5097560;28;20031;-66
2023/03/04 03:00:31;;;;;;;7.25;1.90;;;;;;;18.42;36.94;102471.72;5102884;28;20038;-67
2023/03/04 03:02:57;;;;;;;6.50;1.58;;;;;;;18.43;36.96;102480.50;5102447;28;20035;-66
2023/03/04 03:05:28;;;;;;;7.20;1.60;;;;;;;18.43;36.77;102480.50;5099718;28;20031;-66
2023/03/04 03:07:54;;;;;;;7.03;1.50;;;;;;;18.40;36.75;102478.88;5098432;28;20111;-66
2023/03/04 03:10:19;;;;;;;6.63;2.20;;;;;;;18.40;36.77;102468.31;5084950;28;20027;-66
2023/03/04 03:12:44;;;;;;;7.57;1.40;;;;;;;18.41;36.31;102474.47;5094940;28;20384;-66
2023/03/04 03:15:10;;;;;;;5.05;1.60;;;;;;;18.40;36.72;102473.59;5082577;28;20063;-66
2023/03/04 03:17:35;;;;;;;6.20;1.45;;;;;;;18.38;36.64;102472.81;5085017;28;20097;-65
2023/03/04 03:20:01;;;;;;;6.38;1.48;;;;;;;18.38;36.77;102475.47;5090063;28;20028;-65
2023/03/04 03:22:26;;;;;;;5.57;1.50;;;;;;;18.36;36.77;102471.19;5096367;28;20032;-66
2023/03/04 03:24:51;;;;;;;6.97;1.58;;;;;;;18.37;36.78;102467.63;5082438;28;20035;-66
2023/03/04 03:27:17;;;;;;;5.07;1.60;;;;;;;18.37;36.90;102472.91;5082464;28;20120;-66
2023/03/04 03:29:42;;;;;;;6.35;1.45;;;;;;;18.37;36.76;102470.28;5090167;28;20032;-66
2023/03/04 03:32:08;;;;;;;6.45;1.70;;;;;;;18.35;36.57;102465.09;5097658;28;20441;-66
2023/03/04 03:34:33;;;;;;;6.07;1.73;;;;;;;18.36;36.81;102461.50;5082004;28;20028;-65
2023/03/04 03:36:58;;;;;;;6.30;1.40;;;;;;;18.38;36.45;102466.72;5082659;28;20226;-66
2023/03/04 03:39:24;;;;;;;5.72;1.58;;;;;;;18.37;36.49;102468.47;5082727;28;20028;-66
2023/03/04 03:41:49;;;;;;;4.85;1.50;;;;;;;18.38;36.41;102466.72;5090184;28;20368;-66
2023/03/04 03:44:14;;;;;;;6.38;1.77;;;;;;;18.35;36.37;102459.81;5102035;28;20119;-66
2023/03/04 03:46:40;;;;;;;5.40;1.58;;;;;;;18.34;36.38;102462.53;5102107;28;20035;-66
2023/03/04 03:49:05;;;;;;;4.03;1.30;;;;;;;18.34;36.27;102451.97;5086942;28;20157;-66
2023/03/04 03:51:30;;;;;;;6.05;1.48;;;;;;;18.31;36.46;102459.13;5088849;28;20040;-66
2023/03/04 03:53:55;;;;;;;5.63;1.42;;;;;;;18.31;36.15;102456.50;5081455;28;20081;-66
2023/03/04 03:56:21;;;;;;;8.00;1.42;;;;;;;18.31;36.47;102458.28;5081801;28;20114;-65
2023/03/04 03:58:46;;;;;;;5.97;1.63;;;;;;;18.28;36.54;102464.59;5095396;28;20399;-66
2023/03/04 04:01:11;;;;;;;6.07;1.45;;;;;;;18.31;36.49;102466.22;5101908;28;20038;-66
2023/03/04 04:03:37;;;;;;;6.30;1.73;;;;;;;18.29;36.62;102463.66;5085967;28;20202;-66
2023/03/04 04:06:02;;;;;;;6.85;1.42;;;;;;;18.31;36.24;102463.56;5095419;28;20267;-65
2023/03/04 04:08:27;;;;;;;5.00;1.38;;;;;;;18.21;36.13;102449.19;5101863;28;20464;-66
2023/03/04 04:10:53;;;;;;;6.18;1.40;;;;;;;18.29;36.15;102462.78;5101569;28;20036;-66
2023/03/04 04:13:18;;;;;;;7.15;1.63;;;;;;;18.29;36.09;102462.78;5089992;28;20043;-65
2023/03/04 04:15:44;;;;;;;5.00;1.38;;;;;;;18.29;36.29;102460.16;5081183;28;20873;-65
2023/03/04 04:18:09;;;;;;;5.88;1.40;;;;;;;18.26;36.16;102457.69;5096892;28;20055;-65
2023/03/04 04:20:34;;;;;;;5.28;1.63;;;;;;;18.26;35.92;102460.31;5100870;28;20535;-66
2023/03/04 04:23:01;;;;;;;5.70;1.55;;;;;;;18.25;36.23;102462.13;5101454;28;20054;-65
2023/03/04 04:25:26;;;;;;;7.68;1.40;;;;;;;18.26;35.86;102457.69;5084661;28;20040;-66
2023/03/04 04:27:51;;;;;;;5.28;1.73;;;;;;;18.24;36.13;102470.97;5088400;28;20395;-66
2023/03/04 04:30:16;;;;;;;8.32;1.65;;;;;;;18.23;36.03;102464.00;5093806;28;20491;-65
2023/03/04 04:32:42;;;;;;;4.88;1.23;;;;;;;18.24;36.23;102472.75;5081030;28;20028;-65
2023/03/04 04:35:07;;;;;;;4.78;1.70;;;;;;;18.22;36.15;102459.66;5082127;28;20032;-65
2023/03/04 04:37:32;;;;;;;4.35;1.05;;;;;;;18.22;36.12;102462.28;5101782;28;20024;-66
2023/03/04 04:39:58;;;;;;;5.32;1.40;;;;;;;18.24;35.95;102467.47;5101139;28;20027;-66
2023/03/04 04:42:23;;;;;;;6.05;1.63;;;;;;;18.24;36.05;102467.47;5092176;28;20130;-66
2023/03/04 04:44:48;;;;;;;5.95;1.50;;;;;;;18.21;35.88;102463.22;5081148;28;20046;-65
2023/03/04 04:47:14;;;;;;;5.38;1.20;;;;;;;18.23;35.83;102471.91;5101072;28;20084;-65
2023/03/04 04:49:39;;;;;;;3.78;1.10;;;;;;;18.21;35.56;102472.94;5097910;28;20361;-65
2023/03/04 04:52:04;;;;;;;4.60;1.45;;;;;;;18.20;35.81;102472.09;5081169;28;20036;-65
2023/03/04 04:54:32;;;;;;;4.90;1.33;;;;;;;18.19;35.89;102472.16;5092067;28;20440;-67
2023/03/04 04:56:57;;;;;;;5.10;1.25;;;;;;;18.18;35.77;102473.09;5080976;28;20388;-65
2023/03/04 04:59:23;;;;;;;6.10;1.42;;;;;;;18.20;35.61;102477.38;5095232;28;20031;-66
2023/03/04 05:01:48;;;;;;;5.90;1.60;;;;;;;18.17;35.91;102477.53;5086225;28;20065;-66
2023/03/04 05:04:13;;;;;;;3.92;1.00;;;;;;;18.19;35.85;102480.09;5080898;28;20128;-66
2023/03/04 05:06:39;;;;;;;4.05;1.00;;;;;;;18.18;37.24;102479.22;5093980;28;20023;-66
2023/03/04 05:09:05;;;;;;;6.07;1.10;;;;;;;18.19;38.08;102480.09;5101042;28;20047;-66
2023/03/04 05:11:30;;;;;;;5.63;1.35;;;;;;;18.13;38.59;102468.06;5092297;28;20859;-66
2023/03/04 05:13:56;;;;;;;5.22;1.38;;;;;;;18.17;38.90;102476.69;5085792;28;20028;-67
2023/03/04 05:16:21;;;;;;;4.18;1.25;;;;;;;18.12;39.11;102469.03;5088583;28;20028;-66
2023/03/04 05:18:46;;;;;;;7.28;1.40;;;;;;;18.11;39.18;102469.97;5088434;28;20051;-66
2023/03/04 05:21:12;;;;;;;5.80;1.38;;;;;;;18.12;39.37;102469.88;5100630;28;20027;-67
2023/03/04 05:23:39;;;;;;;5.65;1.25;;;;;;;18.09;39.47;102466.56;5096524;28;20115;-67
2023/03/04 05:26:06;;;;;;;5.03;1.20;;;;;;;18.10;39.50;102470.88;5080761;28;20032;-66
2023/03/04 05:28:32;;;;;;;5.25;1.63;;;;;;;18.07;40.10;102468.41;5086784;28;20031;-66
2023/03/04 05:30:58;;;;;;;3.70;1.17;;;;;;;18.08;40.06;102470.13;5088478;28;20050;-66
2023/03/04 05:33:24;;;;;;;6.82;1.40;;;;;;;18.06;39.91;102472.84;5095845;28;20028;-66
2023/03/04 05:35:50;;;;;;;4.28;1.10;;;;;;;18.06;40.31;102475.47;5090269;28;20532;-66
2023/03/04 05:38:17;;;;;;;5.43;1.33;;;;;;;18.05;40.23;102471.13;5103199;28;20058;-66
2023/03/04 05:40:43;;;;;;;6.07;1.40;;;;;;;18.06;40.39;102474.66;5095041;28;20093;-67
2023/03/04 05:43:09;;;;;;;3.67;1.08;;;;;;;18.06;40.56;102483.41;5090454;28;20032;-66
2023/03/04 05:45:35;;;;;;;5.88;1.50;;;;;;;18.05;40.68;102475.56;5101125;28;20035;-65
2023/03/04 05:48:02;;;;;;;4.22;1.27;;;;;;;18.00;41.19;102474.97;5093867;28;20027;-65
2023/03/04 05:50:28;;;;;;;3.95;1.35;;;;;;;18.04;41.21;102480.00;5100464;28;20035;-66
2023/03/04 05:52:53;;;;;;;5.53;1.30;;;;;;;17.93;40.97;102462.13;5089163;28;20107;-66
2023/03/04 05:55:18;;;;;;;6.68;1.40;;;;;;;18.03;40.92;102483.56;5089723;28;20134;-66
2023/03/04 05:57:44;;;;;;;5.22;1.25;;;;;;;18.00;40.33;102481.09;5098046;28;20445;-65
2023/03/04 06:00:12;;;;;;;5.20;1.50;;;;;;;18.05;40.22;102481.69;5092341;28;20063;-66
2023/03/04 06:02:38;;;;;;;3.45;1.20;;;;;;;18.09;40.15;102483.22;5103991;28;20046;-66
2023/03/04 06:05:04;;;;;;;5.40;1.13;;;;;;;18.15;40.12;102486.47;5099195;28;20058;-65
2023/03/04 06:07:29;;;;;;;3.22;0.90;;;;;;;18.17;40.13;102484.59;5083918;28;20442;-68
2023/03/04 06:09:55;;;;;;;3.90;1.20;;;;;;;18.18;40.23;102488.94;5103467;28;20035;-65
2023/03/04 06:12:20;;;;;;;4.70;1.10;;;;;;;18.25;40.32;102487.66;5103975;28;20032;-65
2023/03/04 06:14:45;;;;;;;5.00;1.15;;;;;;;18.26;40.47;102482.31;5099975;27;20051;-66
2023/03/04 06:17:11;;;;;;;5.05;1.30;;;;;;;18.30;40.17;102494.38;5086174;28;20387;-66
2023/03/04 06:19:40;;;;;;;5.65;1.23;;;;;;;18.34;40.47;102492.44;5090715;28;20056;-67
2023/03/04 06:22:06;;;;;;;4.63;1.27;;;;;;;18.36;40.13;102487.91;5099329;28;20390;-66
2023/03/04 06:24:32;;;;;;;4.18;1.08;;;;;;;18.42;40.19;102486.69;5088409;28;20452;-66
2023/03/04 06:26:57;;;;;;;6.90;1.33;;;;;;;18.40;40.21;102486.78;5094702;28;20063;-67
2023/03/04 06:29:22;;;;;;;5.07;1.23;;;;;;;18.45;40.34;102497.97;5083438;28;20028;-66
2023/03/04 06:31:47;;;;;;;5.63;1.10;;;;;;;18.46;40.13;102493.53;5098797;28;20274;-66
2023/03/04 06:34:13;;;;;;;3.90;0.93;;;;;;;18.38;40.21;102488.66;5100768;28;20958;-66
2023/03/04 06:36:38;;;;;;;4.97;1.15;;;;;;;18.49;40.54;102502.09;5103656;28;20078;-66
2023/03/04 06:39:05;;;;;;;3.67;0.90;;;;;;;18.46;40.31;102488.25;5085943;28;20929;-67
2023/03/04 06:41:30;;;;;;;4.60;1.08;;;;;;;18.52;40.46;102494.94;5085727;28;20035;-66
2023/03/04 06:43:56;;;;;;;3.88;1.33;;;;;;;18.50;40.52;102492.41;5103295;28;20072;-66
2023/03/04 06:46:22;;;;;;;7.00;1.00;;;;;;;18.54;40.51;102507.13;5103456;28;20109;-67
2023/03/04 06:48:47;;;;;;;5.50;1.17;;;;;;;18.56;40.31;102504.41;5103218;28;20031;-65
2023/03/04 06:51:13;;;;;;;3.10;0.88;;;;;;;18.56;40.70;102499.97;5103385;28;20076;-65
2023/03/04 06:53:39;;;;;;;6.18;1.30;;;;;;;18.58;40.36;102507.78;5098600;28;20032;-66
2023/03/04 06:56:06;;;;;;;3.85;1.10;;;;;;;18.60;40.64;102508.59;5083065;28;20454;-66
2023/03/04 06:58:31;;;;;;;4.15;1.23;;;;;;;18.56;40.46;102507.88;5081036;28;20116;-66
2023/03/04 07:00:57;;;;;;;4.53;1.15;;;;;;;18.57;40.66;102517.53;5082997;28;20111;-66
2023/03/04 07:03:22;;;;;;;6.70;1.00;;;;;;;18.59;40.62;102513.00;5097833;28;20027;-66
2023/03/04 07:05:48;;;;;;;4.25;0.90;;;;;;;18.58;40.52;102513.06;5089695;28;20031;-66
2023/03/04 07:08:13;;;;;;;3.85;0.77;;;;;;;18.60;40.70;102512.06;5094374;28;20042;-65
2023/03/04 07:10:38;;;;;;;5.40;0.90;;;;;;;18.61;40.56;102513.78;5082592;28;20040;-67
2023/03/04 07:13:04;;;;;;;3.20;0.98;;;;;;;18.58;40.60;102511.31;5083512;28;20035;-67
2023/03/04 07:15:29;;;;;;;4.43;0.95;;;;;;;18.61;40.65;102520.81;5102900;28;20930;-67
2023/03/04 07:17:55;;;;;;;3.38;1.08;;;;;;;18.62;40.91;102514.63;5102610;28;20052;-67
2023/03/04 07:20:20;;;;;;;3.40;0.80;;;;;;;18.64;40.96;102512.72;5102322;28;20023;-66
2023/03/04 07:22:45;;;;;;;5.53;1.10;;;;;;;18.64;40.81;102524.16;5087452;28;20472;-67
2023/03/04 07:25:11;;;;;;;5.30;1.10;;;;;;;18.66;40.93;102524.09;5087047;28;20039;-67
2023/03/04 07:27:37;;;;;;;5.10;1.08;;;;;;;18.66;41.17;102527.56;5102690;28;20035;-66
2023/03/04 07:30:04;;;;;;;3.80;1.05;;;;;;;18.66;40.92;102524.09;5099958;28;20032;-67
2023/03/04 07:32:29;;;;;;;2.53;0.70;;;;;;;18.64;41.02;102526.81;5100312;28;20031;-66
2023/03/04 07:34:55;;;;;;;3.72;0.82;;;;;;;18.69;40.97;102537.09;5100113;27;20521;-65
2023/03/04 07:37:20;;;;;;;3.83;0.85;;;;;;;18.68;41.09;102535.41;5085823;28;20050;-67
2023/03/04 07:39:45;;;;;;;3.40;0.95;;;;;;;18.70;41.55;102537.94;5083767;28;20069;-65
2023/03/04 07:42:11;;;;;;;5.32;1.23;;;;;;;18.73;41.43;102543.91;5095898;28;20027;-68
2023/03/04 07:44:36;;;;;;;5.13;1.15;;;;;;;18.76;41.94;102545.53;5089749;28;20457;-68
2023/03/04 07:47:01;;;;;;;6.60;1.38;;;;;;;18.76;42.22;102540.25;5082135;28;20036;-68
2023/03/04 07:49:27;;;;;;;5.57;1.05;;;;;;;18.74;42.42;102545.63;5082026;28;20066;-70
2023/03/04 07:51:52;;;;;;;6.68;1.20;;;;;;;18.77;42.39;102545.44;5081721;28;20039;-66
2023/03/04 07:54:19;;;;;;;5.25;1.35;;;;;;;18.80;42.11;102550.56;5088981;28;20395;-68
2023/03/04 07:56:44;;;;;;;4.70;1.13;;;;;;;18.79;42.45;102556.75;5101717;28;20043;-69
2023/03/04 07:59:10;;;;;;;3.75;0.90;;;;;;;18.81;42.24;102552.22;5100981;28;20040;-67
2023/03/04 08:01:36;;;;;;;2.30;0.80;;;;;;;18.84;42.44;102557.38;5100307;28;20028;-68
2023/03/04 08:04:03;;;;;;;4.95;0.90;;;;;;;18.83;42.45;102553.03;5098786;28;20027;-68
2023/03/04 08:06:29;;;;;;;6.40;0.90;;;;;;;18.84;42.48;102551.25;5093493;28;20036;-68
2023/03/04 08:09:00;;;;;;;4.82;1.00;;;;;;;18.83;42.88;102550.38;5084153;28;20036;-67
2023/03/04 08:11:27;;;;;;;3.90;1.20;;;;;;;18.86;42.85;102554.66;5081683;28;20044;-67
2023/03/04 08:13:53;;;;;;;6.70;1.00;;;;;;;18.88;43.10;102541.34;5081638;28;20621;-68
2023/03/04 08:16:21;;;;;;;4.38;0.82;;;;;;;18.89;43.10;102551.84;5079995;28;20147;-69
2023/03/04 08:18:49;;;;;;;5.85;1.10;;;;;;;18.89;43.12;102556.28;5085961;28;20055;-68
2023/03/04 08:21:18;;;;;;;4.82;1.38;;;;;;;18.90;43.43;102553.53;5081246;28;20059;-69
2023/03/04 08:23:44;;;;;;;4.28;1.02;;;;;;;18.92;43.61;102564.88;5088561;28;20036;-69
2023/03/04 08:26:16;;;;;;;5.80;1.00;;;;;;;18.91;43.54;102563.16;5101502;28;20063;-69
2023/03/04 08:28:42;;;;;;;2.55;0.93;;;;;;;18.94;43.35;102560.34;5101657;28;20041;-67
2023/03/04 08:31:07;;;;;;;4.97;1.10;;;;;;;18.94;43.61;102562.97;5101326;28;20027;-69
2023/03/04 08:33:33;;;;;;;5.70;1.10;;;;;;;18.97;43.53;102568.09;5101327;28;20038;-68
2023/03/04 08:35:59;;;;;;;4.25;1.00;;;;;;;18.94;43.31;102562.97;5101199;28;20027;-68
2023/03/04 08:38:24;;;;;;;6.00;0.90;;;;;;;18.97;43.10;102554.03;5086579;28;20393;-68
2023/03/04 08:40:54;;;;;;;6.13;1.00;;;;;;;19.02;43.02;102560.75;5096002;28;20046;-66
2023/03/04 08:43:20;;;;;;;2.83;0.70;;;;;;;19.09;42.84;102558.63;5086318;28;20043;-68
2023/03/04 08:45:46;;;;;;;5.05;1.20;;;;;;;19.10;42.58;102568.22;5098847;28;20027;-66
2023/03/04 08:48:11;;;;;;;4.72;1.30;;;;;;;19.11;42.52;102562.00;5082440;28;20032;-69
2023/03/04 08:50:36;;;;;;;4.97;0.80;;;;;;;19.09;42.21;102563.91;5085722;28;20444;-70
2023/03/04 08:53:02;;;;;;;5.22;1.00;;;;;;;19.11;42.05;102561.16;5095288;28;20032;-70
2023/03/04 08:55:27;;;;;;;5.53;1.10;;;;;;;19.05;42.08;102553.59;5096167;28;20039;-74
2023/03/04 08:57:52;;;;;;;4.57;0.95;;;;;;;19.08;41.93;102556.06;5086773;28;20039;-66
2023/03/04 09:00:18;;;;;;;7.78;1.10;;;;;;;19.12;41.73;102554.91;5096483;28;20092;-68
2023/03/04 09:02:43;;;;;;;3.88;0.80;;;;;;;19.14;41.48;102550.41;5094748;28;20030;-66
2023/03/04 09:05:09;;;;;;;3.53;0.90;;;;;;;19.15;41.38;102557.38;5089764;28;20036;-67
2023/03/04 09:07:34;;;;;;;3.58;0.85;;;;;;;19.15;41.63;102557.38;5089149;28;20488;-65
2023/03/04 09:09:59;;;;;;;3.75;0.80;;;;;;;19.14;41.11;102553.06;5090259;28;20036;-64
2023/03/04 09:12:24;;;;;;;3.80;0.98;;;;;;;19.13;41.19;102543.41;5084763;28;20047;-67
2023/03/04 09:14:50;;;;;;;3.53;0.90;;;;;;;19.14;41.13;102545.97;5087858;28;20498;-67
2023/03/04 09:17:15;;;;;;;6.00;1.13;;;;;;;19.14;41.13;102548.63;5094920;28;20082;-67
2023/03/04 09:19:40;;;;;;;4.55;1.00;;;;;;;19.14;41.09;102551.25;5100391;28;20288;-66
2023/03/04 09:22:06;;;;;;;6.03;1.50;;;;;;;19.12;41.03;102545.22;5085053;28;20105;-67
2023/03/04 09:24:31;;;;;;;4.80;1.08;;;;;;;19.12;40.76;102542.59;5094962;28;20267;-67
2023/03/04 09:26:56;;;;;;;4.47;1.00;;;;;;;19.10;41.00;102536.50;5105289;28;20035;-65
2023/03/04 09:29:22;;;;;;;3.58;0.90;;;;;;;19.08;40.86;102535.75;5097797;28;20032;-66
2023/03/04 09:31:47;;;;;;;4.32;1.00;;;;;;;19.14;40.81;102543.34;5094019;28;20377;-65
2023/03/04 09:34:12;;;;;;;5.20;0.95;;;;;;;19.14;40.74;102539.84;5085353;28;20110;-65
2023/03/04 09:36:38;;;;;;;5.55;0.95;;;;;;;19.15;40.73;102536.25;5095398;28;20034;-68
2023/03/04 09:39:04;;;;;;;3.42;1.33;;;;;;;19.12;40.70;102537.28;5084386;28;20034;-68
2023/03/04 09:41:37;;;;;;;4.43;1.13;;;;;;;19.07;40.77;102531.41;5097346;28;20055;-69
2023/03/04 09:44:15;;;;;;;5.43;1.08;;;;;;;19.06;40.88;102534.13;5083789;28;20397;-67
2023/03/04 09:46:44;;;;;;;6.00;1.10;;;;;;;19.05;40.66;102530.66;5103601;28;20042;-65
2023/03/04 09:49:11;;;;;;;4.10;1.00;;;;;;;19.05;40.69;102527.16;5104327;27;20114;-67
2023/03/04 09:51:46;;;;;;;3.63;1.02;;;;;;;19.05;40.75;102533.28;5102802;28;20055;-63
2023/03/04 09:54:32;;;;;;;5.55;1.20;;;;;;;19.02;41.03;102526.38;5100897;28;20032;-66
2023/03/04 09:57:14;;;;;;;6.35;3.13;;;;;;;19.07;40.61;102525.28;5103435;28;20031;-67
2023/03/04 09:59:48;;;;;;;2.53;0.80;;;;;;;19.07;40.45;102531.41;5097615;28;20039;-68
2023/03/04 10:02:31;;;;;;;3.30;0.90;;;;;;;19.06;40.14;102529.72;5103974;28;20028;-67
2023/03/04 10:05:00;;;;;;;3.45;0.73;;;;;;;19.08;40.33;102534.91;5084818;28;20036;-69
2023/03/04 10:07:32;;;;;;;3.05;0.82;;;;;;;19.08;40.23;102527.84;5098594;28;20040;-66
2023/03/04 10:10:15;;;;;;;2.38;0.85;;;;;;;19.02;40.04;102518.47;5083398;28;20036;-66
2023/03/04 10:12:45;;;;;;;3.97;0.80;;;;;;;19.13;39.58;102524.91;5098720;28;20136;-66
2023/03/04 10:15:25;;;;;;;2.58;0.77;;;;;;;19.11;39.79;102526.81;5099079;28;20032;-68
2023/03/04 10:18:00;;;;;;;4.97;0.80;;;;;;;19.12;40.00;102533.78;5081815;28;20052;-68
2023/03/04 10:20:43;;;;;;;3.53;0.77;;;;;;;19.10;40.25;102531.22;5086357;28;20028;-67
2023/03/04 10:23:13;;;;;;;3.00;0.70;;;;;;;19.11;40.01;102527.66;5103057;28;20043;-70
2023/03/04 10:25:44;;;;;;;3.67;0.80;;;;;;;19.12;40.06;102524.09;5093809;28;20111;-67
2023/03/04 10:28:15;;;;;;;6.30;1.10;;;;;;;19.14;39.55;102522.19;5084812;28;20473;-66
2023/03/04 10:31:01;;;;;;;4.72;1.08;;;;;;;19.11;39.86;102521.53;5091056;28;20035;-67
2023/03/04 10:33:29;;;;;;;3.75;1.00;;;;;;;19.13;39.94;102520.47;5093473;28;20038;-66
2023/03/04 10:36:24;;;;;;;3.65;1.00;;;;;;;19.26;39.67;102514.47;5100597;27;20073;-66
2023/03/04 10:38:53;;;;;;;4.15;0.88;;;;;;;19.35;39.37;102512.13;5102337;28;20053;-67
2023/03/04 10:41:24;;;;;;;4.68;0.90;;;;;;;19.35;39.06;102513.91;5085469;28;20032;-67
2023/03/04 10:44:08;;;;;;;3.85;1.13;;;;;;;19.35;38.80;102504.19;5086590;28;20365;-65
2023/03/04 10:46:41;;;;;;;3.28;1.00;;;;;;;19.34;39.09;102520.13;5084040;28;20028;-66
2023/03/04 10:49:09;;;;;;;3.95;0.80;;;;;;;19.32;38.92;102503.53;5097594;28;20154;-67
2023/03/04 10:51:42;;;;;;;2.60;0.80;;;;;;;19.31;39.12;102507.09;5103227;28;20084;-67
2023/03/04 10:54:33;;;;;;;3.65;0.80;;;;;;;19.31;38.99;102507.97;5103007;28;20823;-68
2023/03/04 10:57:02;;;;;;;2.95;0.73;;;;;;;19.27;39.07;102501.16;5089561;28;20040;-69
2023/03/04 10:59:46;;;;;;;3.03;0.73;;;;;;;19.27;38.93;102502.97;5087737;28;20122;-68
2023/03/04 11:02:14;;;;;;;;;;;;;;;19.32;39.00;102507.00;5101835;28;20036;-66
2023/03/04 11:04:40;;;;;;;3.72;0.77;;;;;;;19.28;38.99;102496.72;5092284;28;20004;-67
2023/03/04 11:07:09;;;;;;;2.88;0.80;;;;;;;19.21;38.97;102497.06;5103119;28;20124;-68
2023/03/04 11:09:35;;;;;;;4.13;1.08;;;;;;;19.24;38.94;102498.69;5101915;28;20046;-68
2023/03/04 11:12:03;;;;;;;4.43;0.82;;;;;;;19.20;38.97;102495.41;5102559;27;20043;-68
2023/03/04 11:14:35;;;;;;;3.38;0.80;;;;;;;19.18;38.99;102493.78;5086145;27;20562;-66
2023/03/04 11:17:25;;;;;;;3.63;0.80;;;;;;;19.17;39.03;102494.75;5089781;28;20028;-67
2023/03/04 11:20:07;;;;;;;3.78;0.80;;;;;;;19.10;39.13;102496.03;5086164;28;20044;-68
2023/03/04 11:22:33;;;;;;;2.97;0.85;;;;;;;19.02;39.33;102496.47;5081481;28;20063;-66
2023/03/04 11:25:04;;;;;;;3.70;0.70;;;;;;;18.98;39.46;102479.97;5095643;28;20028;-67